createdAt,value
2022-09-06T00:00:42.984Z,72.64
2022-09-06T00:03:09.798Z,72.85
2022-09-06T00:05:36.938Z,72.30
2022-09-06T00:08:05.029Z,72.34
2022-09-06T00:10:32.652Z,72.46
2022-09-06T00:13:07.356Z,72.69
2022-09-06T00:15:35.184Z,72.51
2022-09-06T00:18:03.515Z,73.18
2022-09-06T00:20:31.220Z,73.90
2022-09-06T00:23:02.141Z,74.65
2022-09-06T00:25:29.528Z,73.66
2022-09-06T00:28:03.279Z,74.18
2022-09-06T00:30:31.384Z,73.71
2022-09-06T00:32:58.602Z,73.90
2022-09-06T00:35:26.293Z,74.70
2022-09-06T00:37:57.920Z,75.20
2022-09-06T00:40:24.689Z,74.93
2022-09-06T00:42:51.909Z,74.69
2022-09-06T00:45:19.023Z,74.55
2022-09-06T00:47:45.887Z,74.29
2022-09-06T00:50:14.240Z,74.75
2022-09-06T00:52:41.367Z,74.89
2022-09-06T00:55:08.408Z,74.96
2022-09-06T00:57:35.368Z,75.21
2022-09-06T01:00:04.364Z,75.63
2022-09-06T01:02:31.185Z,75.67
2022-09-06T01:04:58.243Z,75.83
2022-09-06T01:07:38.415Z,75.62
2022-09-06T01:10:32.667Z,75.57
2022-09-06T01:13:08.640Z,75.54
2022-09-06T01:15:56.838Z,75.26
2022-09-06T01:18:33.527Z,74.58
2022-09-06T01:21:12.396Z,74.41
2022-09-06T01:24:16.847Z,74.12
2022-09-06T01:27:07.669Z,74.18
2022-09-06T01:29:39.909Z,74.57
2022-09-06T01:32:22.715Z,74.26
2022-09-06T01:35:11.776Z,74.33
2022-09-06T01:37:38.507Z,74.54
2022-09-06T01:40:05.797Z,74.77
2022-09-06T01:42:33.410Z,74.69
2022-09-06T01:45:02.729Z,75.07
2022-09-06T01:47:38.678Z,75.18
2022-09-06T01:50:24.316Z,75.12
2022-09-06T01:53:01.357Z,74.88
2022-09-06T01:55:35.793Z,74.99
2022-09-06T01:58:29.620Z,75.17
2022-09-06T02:01:05.341Z,75.13
2022-09-06T02:04:01.248Z,75.04
2022-09-06T02:06:31.168Z,75.29
2022-09-06T02:09:10.759Z,75.58
2022-09-06T02:11:42.298Z,75.51
2022-09-06T02:14:15.528Z,75.71
2022-09-06T02:16:44.429Z,75.61
2022-09-06T02:19:33.393Z,75.28
2022-09-06T02:22:02.075Z,75.91
2022-09-06T02:24:31.235Z,75.27
2022-09-06T02:26:58.035Z,74.10
2022-09-06T02:29:25.006Z,73.57
2022-09-06T02:32:00.962Z,72.93
2022-09-06T02:34:27.809Z,72.48
2022-09-06T02:36:55.648Z,72.55
2022-09-06T02:39:22.559Z,72.64
2022-09-06T02:41:49.471Z,72.71
2022-09-06T02:44:16.251Z,72.24
2022-09-06T02:46:42.977Z,72.21
2022-09-06T02:49:09.940Z,70.47
2022-09-06T02:51:38.731Z,70.57
2022-09-06T02:54:06.471Z,70.31
2022-09-06T02:56:33.918Z,70.26
2022-09-06T02:59:00.840Z,70.04
2022-09-06T03:01:28.007Z,70.96
2022-09-06T03:03:54.804Z,71.24
2022-09-06T03:06:21.578Z,74.04
2022-09-06T03:08:48.420Z,78.47
2022-09-06T03:11:16.852Z,79.47
2022-09-06T03:13:43.504Z,80.14
2022-09-06T03:16:10.352Z,80.81
2022-09-06T03:18:37.088Z,81.43
2022-09-06T03:21:04.082Z,82.62
2022-09-06T03:23:30.900Z,82.94
2022-09-06T03:25:57.740Z,83.07
2022-09-06T03:28:24.554Z,82.75
2022-09-06T03:30:51.987Z,82.70
2022-09-06T03:33:19.722Z,82.67
2022-09-06T03:35:54.396Z,82.78
2022-09-06T03:38:21.875Z,83.04
2022-09-06T03:40:49.282Z,83.78
2022-09-06T03:43:17.248Z,84.62
2022-09-06T03:45:48.314Z,84.94
2022-09-06T03:48:16.144Z,85.40
2022-09-06T03:50:50.517Z,85.32
2022-09-06T03:53:17.977Z,84.88
2022-09-06T03:55:46.483Z,84.90
2022-09-06T03:58:13.274Z,84.56
2022-09-06T04:00:40.079Z,84.91
2022-09-06T04:03:06.804Z,84.60
2022-09-06T04:05:33.560Z,84.52
2022-09-06T04:08:00.567Z,84.77
2022-09-06T04:10:27.228Z,84.90
2022-09-06T04:12:54.186Z,84.99
2022-09-06T04:15:21.018Z,85.13
2022-09-06T04:17:47.837Z,85.25
2022-09-06T04:20:14.919Z,85.09
2022-09-06T04:22:42.059Z,84.84
2022-09-06T04:25:09.143Z,85.21
2022-09-06T04:27:35.835Z,85.33
2022-09-06T04:30:02.507Z,85.37
2022-09-06T04:32:29.280Z,85.44
2022-09-06T04:34:55.983Z,85.01
2022-09-06T04:37:22.707Z,85.50
2022-09-06T04:39:49.400Z,85.74
2022-09-06T04:42:16.259Z,85.16
2022-09-06T04:44:42.964Z,84.95
2022-09-06T04:47:15.031Z,85.11
2022-09-06T04:49:42.507Z,85.13
2022-09-06T04:52:09.398Z,85.26
2022-09-06T04:54:36.334Z,85.09
2022-09-06T04:57:03.315Z,85.07
2022-09-06T04:59:30.422Z,85.40
2022-09-06T05:01:57.437Z,85.81
2022-09-06T05:04:24.367Z,85.55
2022-09-06T05:07:00.557Z,85.53
2022-09-06T05:09:27.271Z,85.42
2022-09-06T05:11:54.583Z,85.33
2022-09-06T05:14:21.948Z,85.42
2022-09-06T05:16:48.680Z,85.33
2022-09-06T05:19:15.471Z,85.21
2022-09-06T05:21:42.304Z,85.24
2022-09-06T05:24:08.966Z,85.33
2022-09-06T05:26:35.897Z,85.09
2022-09-06T05:29:02.657Z,84.90
2022-09-06T05:31:31.580Z,84.67
2022-09-06T05:33:58.833Z,84.28
2022-09-06T05:36:26.885Z,84.00
2022-09-06T05:38:54.908Z,83.69
2022-09-06T05:41:22.546Z,83.72
2022-09-06T05:43:49.470Z,83.66
2022-09-06T05:46:17.081Z,83.51
2022-09-06T05:48:44.008Z,83.71
2022-09-06T05:51:12.849Z,83.68
2022-09-06T05:53:44.445Z,83.82
2022-09-06T05:56:12.907Z,83.83
2022-09-06T05:58:39.725Z,83.72
2022-09-06T06:01:19.996Z,83.67
2022-09-06T06:03:54.816Z,83.51
2022-09-06T06:06:23.703Z,83.25
2022-09-06T06:08:50.625Z,83.42
2022-09-06T06:11:17.573Z,83.59
2022-09-06T06:13:44.645Z,83.49
2022-09-06T06:16:13.867Z,83.39
2022-09-06T06:18:41.373Z,83.20
2022-09-06T06:21:11.841Z,82.84
2022-09-06T06:23:39.175Z,82.34
2022-09-06T06:26:06.563Z,81.99
2022-09-06T06:28:35.684Z,81.96
2022-09-06T06:31:03.924Z,81.83
2022-09-06T06:33:30.668Z,81.33
2022-09-06T06:36:01.903Z,80.91
2022-09-06T06:38:37.565Z,80.53
2022-09-06T06:41:06.990Z,80.32
2022-09-06T06:43:38.018Z,80.32
2022-09-06T06:46:06.129Z,80.13
2022-09-06T06:48:32.939Z,79.52
2022-09-06T06:50:59.722Z,79.12
2022-09-06T06:53:26.830Z,79.07
2022-09-06T06:55:54.205Z,79.04
2022-09-06T06:58:21.488Z,78.76
2022-09-06T07:00:48.348Z,78.00
2022-09-06T07:03:15.166Z,76.82
2022-09-06T07:08:34.046Z,76.57
2022-09-06T07:11:00.743Z,75.74
2022-09-06T07:13:27.522Z,74.57
2022-09-06T07:16:15.178Z,74.28
2022-09-06T07:18:46.029Z,73.62
2022-09-06T07:26:30.704Z,72.71
2022-09-06T07:29:03.188Z,71.69
2022-09-06T07:34:18.102Z,69.88
2022-09-06T07:36:55.631Z,70.93
2022-09-06T07:39:25.556Z,71.61
2022-09-06T07:41:52.311Z,71.39
2022-09-06T07:44:19.011Z,72.37
2022-09-06T07:46:46.371Z,72.01
2022-09-06T07:49:13.121Z,72.93
2022-09-06T07:51:39.892Z,72.54
2022-09-06T07:54:28.927Z,72.67
2022-09-06T07:56:53.804Z,71.89
2022-09-06T07:59:20.592Z,71.90
2022-09-06T08:01:48.364Z,71.60
2022-09-06T08:04:15.296Z,71.50
2022-09-06T08:09:35.001Z,70.28
2022-09-06T08:12:07.057Z,69.67
2022-09-06T08:14:34.062Z,69.56
2022-09-06T08:17:00.760Z,69.19
2022-09-06T08:19:27.446Z,68.48
2022-09-06T08:21:57.588Z,67.60
2022-09-06T08:24:24.860Z,66.33
2022-09-06T08:26:51.592Z,65.74
2022-09-06T08:29:19.947Z,64.91
2022-09-06T08:31:47.058Z,63.73
2022-09-06T08:34:15.198Z,63.89
2022-09-06T08:36:42.651Z,63.91
2022-09-06T08:39:10.195Z,63.82
2022-09-06T08:41:56.671Z,62.96
2022-09-06T08:45:00.254Z,62.47
2022-09-06T08:47:26.951Z,61.75
2022-09-06T08:50:05.922Z,61.10
2022-09-06T08:53:16.278Z,60.71
2022-09-06T08:56:00.084Z,59.34
2022-09-06T08:58:37.293Z,59.22
2022-09-06T09:01:08.400Z,58.25
2022-09-06T09:03:37.422Z,56.00
2022-09-06T09:06:07.159Z,56.01
2022-09-06T09:08:39.776Z,55.06
2022-09-06T09:11:08.524Z,56.29
2022-09-06T09:13:45.604Z,56.32
2022-09-06T09:16:12.900Z,55.82
2022-09-06T09:18:43.641Z,56.50
2022-09-06T09:21:10.481Z,53.63
2022-09-06T09:23:37.338Z,53.50
2022-09-06T09:26:06.535Z,52.53
2022-09-06T09:28:33.406Z,52.36
2022-09-06T09:31:00.186Z,52.42
2022-09-06T09:33:36.000Z,53.34
2022-09-06T09:36:25.944Z,53.10
2022-09-06T09:38:54.322Z,53.75
2022-09-06T09:41:34.232Z,53.99
2022-09-06T09:44:04.988Z,53.65
2022-09-06T09:46:34.366Z,54.42
2022-09-06T09:49:12.470Z,53.36
2022-09-06T09:51:44.584Z,52.46
2022-09-06T09:54:14.967Z,51.74
2022-09-06T09:56:46.242Z,51.30
2022-09-06T09:59:21.225Z,49.80
2022-09-06T10:01:47.972Z,52.29
2022-09-06T10:04:44.214Z,52.64
2022-09-06T10:07:17.186Z,52.61
2022-09-06T10:09:46.731Z,51.89
2022-09-06T10:12:28.579Z,51.45
2022-09-06T10:14:55.931Z,50.24
2022-09-06T10:17:31.958Z,50.43
2022-09-06T10:20:10.559Z,48.98
2022-09-06T10:22:46.163Z,48.71
2022-09-06T10:25:31.971Z,49.14
2022-09-06T10:28:24.218Z,47.82
2022-09-06T10:31:11.770Z,45.46
2022-09-06T10:34:15.810Z,47.08
2022-09-06T10:36:56.875Z,45.14
2022-09-06T10:39:30.044Z,46.71
2022-09-06T10:42:15.733Z,45.75
2022-09-06T10:45:05.642Z,46.26
2022-09-06T10:47:56.538Z,46.41
2022-09-06T10:50:31.239Z,43.48
2022-09-06T10:53:04.848Z,43.47
2022-09-06T10:55:32.617Z,42.50
2022-09-06T10:58:20.644Z,41.84
2022-09-06T11:00:49.056Z,43.06
2022-09-06T11:06:28.860Z,41.24
2022-09-06T11:09:16.895Z,43.23
2022-09-06T11:12:12.858Z,42.11
2022-09-06T11:14:40.409Z,42.72
2022-09-06T11:17:11.633Z,44.37
2022-09-06T11:20:00.017Z,43.87
2022-09-06T11:22:42.718Z,44.77
2022-09-06T11:25:24.667Z,44.96
2022-09-06T11:27:57.952Z,44.29
2022-09-06T11:30:25.733Z,44.50
2022-09-06T11:33:09.033Z,45.52
2022-09-06T11:35:36.348Z,45.45
2022-09-06T11:38:05.613Z,45.80
2022-09-06T11:40:46.996Z,47.02
2022-09-06T11:43:32.385Z,46.26
2022-09-06T11:45:59.145Z,44.35
2022-09-06T11:48:34.334Z,44.76
2022-09-06T11:51:07.322Z,45.23
2022-09-06T11:53:49.029Z,46.48
2022-09-06T11:56:46.616Z,45.88
2022-09-06T11:59:15.996Z,45.95
2022-09-06T12:01:59.935Z,45.76
2022-09-06T12:05:01.394Z,45.49
2022-09-06T12:07:29.301Z,45.93
2022-09-06T12:09:56.254Z,46.70
2022-09-06T12:12:40.991Z,46.83
2022-09-06T12:15:30.832Z,46.37
2022-09-06T12:17:59.009Z,45.61
2022-09-06T12:20:54.405Z,46.38
2022-09-06T12:23:50.261Z,46.99
2022-09-06T12:26:55.597Z,46.35
2022-09-06T12:29:25.517Z,46.79
2022-09-06T12:31:54.653Z,46.41
2022-09-06T12:34:27.306Z,47.56
2022-09-06T12:36:54.038Z,48.68
2022-09-06T12:39:23.880Z,48.26
2022-09-06T12:41:55.145Z,47.46
2022-09-06T12:44:29.401Z,48.00
2022-09-06T12:47:01.189Z,49.88
2022-09-06T12:49:27.900Z,51.48
2022-09-06T12:52:06.625Z,50.04
2022-09-06T12:54:33.314Z,50.88
2022-09-06T12:57:20.291Z,50.39
2022-09-06T12:59:48.535Z,50.94
2022-09-06T13:02:19.322Z,50.68
2022-09-06T13:05:01.463Z,50.45
2022-09-06T13:07:29.191Z,50.18
2022-09-06T13:09:56.607Z,50.15
2022-09-06T13:12:29.699Z,51.66
2022-09-06T13:14:57.843Z,54.57
2022-09-06T13:17:27.088Z,53.16
2022-09-06T13:19:53.976Z,55.56
2022-09-06T13:22:42.962Z,54.54
2022-09-06T13:25:17.542Z,54.10
2022-09-06T13:27:58.219Z,51.67
2022-09-06T13:30:38.758Z,50.03
2022-09-06T13:33:07.351Z,47.92
2022-09-06T13:35:37.867Z,48.45
2022-09-06T13:38:43.464Z,47.90
2022-09-06T13:41:25.026Z,47.72
2022-09-06T13:44:27.155Z,47.14
2022-09-06T13:46:55.373Z,48.94
2022-09-06T13:49:25.989Z,48.58
2022-09-06T13:51:53.768Z,47.79
2022-09-06T13:54:20.478Z,48.83
2022-09-06T13:56:48.638Z,48.78
2022-09-06T13:59:16.033Z,49.28
2022-09-06T14:01:44.315Z,50.09
2022-09-06T14:04:16.110Z,50.97
2022-09-06T14:06:42.838Z,52.86
2022-09-06T14:09:09.982Z,51.98
2022-09-06T14:11:36.880Z,51.51
2022-09-06T14:14:04.195Z,51.75
2022-09-06T14:16:31.659Z,52.63
2022-09-06T14:18:58.378Z,54.94
2022-09-06T14:21:25.079Z,53.84
2022-09-06T14:23:52.694Z,54.08
2022-09-06T14:26:21.221Z,54.54
2022-09-06T14:28:48.174Z,54.64
2022-09-06T14:31:17.483Z,54.85
2022-09-06T14:33:44.385Z,55.78
2022-09-06T14:36:14.312Z,56.37
2022-09-06T14:38:42.516Z,55.83
2022-09-06T14:41:09.957Z,56.87
2022-09-06T14:43:37.117Z,56.95
2022-09-06T14:46:08.436Z,58.16
2022-09-06T14:48:39.160Z,59.31
2022-09-06T14:51:12.664Z,60.79
2022-09-06T14:53:44.031Z,61.64
2022-09-06T14:56:11.304Z,62.29
2022-09-06T14:58:39.180Z,62.92
2022-09-06T15:01:28.737Z,63.85
2022-09-06T15:03:58.190Z,64.81
2022-09-06T15:06:26.589Z,65.36
2022-09-06T15:08:58.535Z,66.61
2022-09-06T15:11:34.711Z,69.14
2022-09-06T15:14:02.974Z,72.17
2022-09-06T15:16:30.042Z,72.88
2022-09-06T15:18:56.887Z,75.87
2022-09-06T15:21:24.813Z,76.43
2022-09-06T15:23:52.790Z,76.83
2022-09-06T15:26:19.503Z,78.24
2022-09-06T15:28:46.186Z,78.70
2022-09-06T15:31:13.769Z,79.34
2022-09-06T15:33:41.207Z,79.63
2022-09-06T15:36:09.620Z,79.66
2022-09-06T15:38:41.835Z,79.15
2022-09-06T15:41:12.159Z,79.99
2022-09-06T15:43:42.244Z,79.38
2022-09-06T15:46:09.907Z,79.84
2022-09-06T15:48:42.002Z,80.39
2022-09-06T15:51:09.367Z,81.48
2022-09-06T15:53:36.273Z,80.64
2022-09-06T15:56:04.235Z,80.08
2022-09-06T15:58:31.333Z,79.79
2022-09-06T16:01:00.991Z,80.11
2022-09-06T16:03:28.082Z,81.06
2022-09-06T16:08:41.965Z,79.80
2022-09-06T16:11:13.975Z,80.06
2022-09-06T16:13:41.545Z,81.14
2022-09-06T16:16:11.588Z,81.45
2022-09-06T16:18:40.321Z,81.05
2022-09-06T16:21:08.818Z,81.83
2022-09-06T16:23:37.023Z,81.65
2022-09-06T16:26:04.724Z,81.32
2022-09-06T16:28:33.701Z,81.20
2022-09-06T16:31:02.296Z,80.96
2022-09-06T16:33:29.776Z,80.15
2022-09-06T16:35:59.604Z,80.77
2022-09-06T16:38:33.098Z,79.86
2022-09-06T16:41:02.148Z,76.69
2022-09-06T16:43:28.865Z,75.38
2022-09-06T16:46:00.429Z,75.54
2022-09-06T16:48:27.688Z,75.89
2022-09-06T16:50:55.024Z,75.20
2022-09-06T16:53:22.326Z,74.79
2022-09-06T16:55:49.945Z,74.32
2022-09-06T16:58:17.028Z,68.85
2022-09-06T17:00:47.331Z,69.96
2022-09-06T17:03:14.327Z,72.51
2022-09-06T17:05:41.294Z,72.97
2022-09-06T17:08:08.463Z,73.14
2022-09-06T17:10:38.378Z,72.98
2022-09-06T17:13:05.076Z,73.79
2022-09-06T17:15:51.760Z,74.24
2022-09-06T17:18:18.424Z,74.90
2022-09-06T17:20:57.769Z,76.01
2022-09-06T17:23:25.273Z,77.24
2022-09-06T17:25:52.425Z,77.90
2022-09-06T17:28:20.091Z,78.90
2022-09-06T17:30:46.905Z,79.13
2022-09-06T17:33:13.680Z,79.00
2022-09-06T17:35:40.360Z,78.74
2022-09-06T17:38:07.376Z,78.95
2022-09-06T17:40:34.114Z,79.11
2022-09-06T17:43:01.351Z,79.33
2022-09-06T17:45:29.234Z,79.22
2022-09-06T17:47:56.174Z,79.48
2022-09-06T17:50:23.723Z,78.82
2022-09-06T17:52:51.642Z,78.38
2022-09-06T17:55:18.802Z,78.20
2022-09-06T17:57:45.461Z,77.79
2022-09-06T18:00:14.116Z,78.15
2022-09-06T18:02:40.776Z,78.76
2022-09-06T18:05:07.961Z,79.15
2022-09-06T18:07:34.629Z,79.83
2022-09-06T18:10:01.299Z,80.15
2022-09-06T18:12:27.998Z,80.29
2022-09-06T18:14:54.916Z,80.39
2022-09-06T18:17:21.771Z,80.83
2022-09-06T18:19:48.475Z,80.73
2022-09-06T18:22:15.235Z,80.94
2022-09-06T18:24:41.953Z,80.72
2022-09-06T18:27:08.712Z,80.29
2022-09-06T18:29:35.478Z,79.71
2022-09-06T18:32:03.050Z,79.62
2022-09-06T18:34:29.782Z,77.88
2022-09-06T18:36:56.520Z,77.62
2022-09-06T18:39:23.284Z,77.78
2022-09-06T18:42:01.893Z,78.17
2022-09-06T18:44:32.949Z,78.42
2022-09-06T18:47:05.692Z,78.20
2022-09-06T18:49:33.869Z,78.50
2022-09-06T18:52:02.150Z,79.05
2022-09-06T18:54:29.385Z,79.26
2022-09-06T18:56:56.472Z,79.97
2022-09-06T18:59:23.361Z,80.38
2022-09-06T19:01:50.240Z,80.17
2022-09-06T19:04:17.373Z,80.46
2022-09-06T19:06:44.889Z,80.71
2022-09-06T19:09:13.857Z,80.53
2022-09-06T19:11:45.690Z,80.53
2022-09-06T19:14:13.084Z,80.78
2022-09-06T19:16:40.249Z,81.04
2022-09-06T19:19:09.917Z,81.37
2022-09-06T19:21:40.949Z,81.21
2022-09-06T19:24:10.571Z,81.04
2022-09-06T19:26:38.988Z,81.14
2022-09-06T19:29:09.063Z,81.77
2022-09-06T19:31:37.572Z,82.13
2022-09-06T19:34:04.792Z,81.86
2022-09-06T19:36:32.096Z,81.62
2022-09-06T19:39:05.034Z,81.48
2022-09-06T19:41:36.353Z,81.63
2022-09-06T19:44:05.897Z,81.84
2022-09-06T19:46:33.181Z,81.96
2022-09-06T19:49:00.645Z,82.38
2022-09-06T19:51:27.478Z,82.31
2022-09-06T19:53:57.832Z,82.49
2022-09-06T19:56:33.774Z,82.64
2022-09-06T19:59:03.370Z,83.13
2022-09-06T20:01:31.557Z,83.31
2022-09-06T20:03:59.440Z,83.58
2022-09-06T20:06:27.238Z,83.19
2022-09-06T20:08:56.173Z,83.03
2022-09-06T20:11:26.426Z,82.90
2022-09-06T20:13:53.164Z,82.89
2022-09-06T20:16:21.048Z,83.07
2022-09-06T20:18:48.573Z,83.02
2022-09-06T20:21:17.874Z,82.99
2022-09-06T20:23:49.241Z,82.64
2022-09-06T20:26:16.165Z,82.64
2022-09-06T20:28:44.168Z,83.01
2022-09-06T20:31:13.831Z,82.91
2022-09-06T20:33:40.746Z,82.65
2022-09-06T20:36:09.433Z,82.74
2022-09-06T20:38:42.277Z,82.74
2022-09-06T20:41:35.162Z,83.05
2022-09-06T20:44:02.356Z,83.23
2022-09-06T20:46:32.360Z,83.29
2022-09-06T20:49:05.242Z,83.38
2022-09-06T20:51:33.484Z,83.17
2022-09-06T20:54:01.689Z,83.09
2022-09-06T20:56:35.090Z,82.91
2022-09-06T20:59:04.631Z,83.03
2022-09-06T21:01:35.267Z,82.99
2022-09-06T21:04:04.905Z,82.81
2022-09-06T21:06:36.600Z,82.68
2022-09-06T21:09:08.992Z,82.45
2022-09-06T21:11:36.081Z,82.27
2022-09-06T21:14:04.316Z,81.60
2022-09-06T21:16:32.005Z,81.43
2022-09-06T21:19:06.680Z,81.18
2022-09-06T21:21:34.991Z,81.08
2022-09-06T21:24:02.944Z,80.59
2022-09-06T21:26:29.661Z,80.97
2022-09-06T21:28:56.959Z,80.83
2022-09-06T21:31:31.478Z,80.92
2022-09-06T21:34:03.107Z,80.92
2022-09-06T21:36:35.843Z,81.36
2022-09-06T21:39:05.784Z,81.71
2022-09-06T21:41:35.142Z,82.05
2022-09-06T21:44:02.875Z,81.94
2022-09-06T21:46:33.480Z,81.89
2022-09-06T21:49:14.074Z,81.72
2022-09-06T21:51:41.228Z,81.43
2022-09-06T21:54:08.757Z,81.46
2022-09-06T21:56:37.113Z,81.49
2022-09-06T21:59:04.992Z,81.23
2022-09-06T22:01:33.522Z,81.28
2022-09-06T22:04:00.572Z,80.94
2022-09-06T22:06:29.108Z,80.80
2022-09-06T22:08:57.602Z,80.83
2022-09-06T22:11:30.434Z,80.40
2022-09-06T22:14:02.373Z,80.21
2022-09-06T22:16:30.220Z,79.89
2022-09-06T22:18:57.210Z,79.65
2022-09-06T22:21:24.558Z,79.34
2022-09-06T22:24:11.502Z,79.22
2022-09-06T22:26:40.006Z,79.33
2022-09-06T22:29:08.408Z,78.69
2022-09-06T22:31:36.320Z,78.44
2022-09-06T22:34:04.196Z,78.27
2022-09-06T22:36:31.005Z,78.32
2022-09-06T22:38:58.661Z,78.36
2022-09-06T22:41:27.191Z,78.05
2022-09-06T22:43:54.045Z,78.03
2022-09-06T22:46:20.858Z,78.08
2022-09-06T22:48:47.826Z,78.47
2022-09-06T22:51:14.457Z,78.96
2022-09-06T22:53:41.193Z,78.77
2022-09-06T22:56:07.890Z,78.55
2022-09-06T22:58:35.520Z,78.55
2022-09-06T23:01:09.414Z,78.71
2022-09-06T23:03:36.854Z,78.07
2022-09-06T23:06:04.263Z,78.15
2022-09-06T23:08:32.308Z,78.50
2022-09-06T23:11:04.187Z,78.75
2022-09-06T23:13:31.078Z,78.76
2022-09-06T23:16:03.091Z,78.67
2022-09-06T23:18:29.948Z,78.87
2022-09-06T23:20:57.497Z,79.01
2022-09-06T23:23:24.244Z,78.80
2022-09-06T23:25:50.936Z,78.08
2022-09-06T23:28:17.597Z,77.84
2022-09-06T23:30:44.309Z,77.77
2022-09-06T23:33:10.983Z,77.90
2022-09-06T23:35:39.348Z,77.80
2022-09-06T23:38:06.042Z,77.54
2022-09-06T23:40:32.932Z,77.59
2022-09-06T23:42:59.573Z,77.36
2022-09-06T23:45:26.229Z,75.84
2022-09-06T23:47:52.823Z,76.20
2022-09-06T23:50:19.496Z,76.45
2022-09-06T23:52:46.342Z,76.22
2022-09-06T23:55:12.971Z,76.29
2022-09-06T23:57:39.609Z,76.64
